Time;durP1;ratioP1;P1;durP2;ratioP2;P2;SDS_P1;SDS_P2;PMS_P1;PMS_P2;Temp;Humidity;BMP_temperature;BMP_pressure;BME280_temperature;BME280_humidity;BME280_pressure;Samples;Min_cycle;Max_cycle;Signal;HPM_P1;HPM_P2
2023/06/04 00:01:22;;;;;;;2.28;1.08;;;15.40;76.40;;;;;;5019136;28;20030;-92
2023/06/04 00:03:48;;;;;;;3.22;1.23;;;15.40;76.90;;;;;;5011921;28;20024;-93
2023/06/04 00:06:16;;;;;;;1.95;1.20;;;15.40;77.20;;;;;;5008749;28;20429;-91
2023/06/04 00:08:42;;;;;;;2.85;1.10;;;15.30;77.60;;;;;;5007254;28;20030;-93
2023/06/04 00:11:07;;;;;;;3.63;1.10;;;15.30;78.40;;;;;;5001882;28;20018;-92
2023/06/04 00:13:33;;;;;;;3.70;1.17;;;15.30;78.40;;;;;;5013703;28;20029;-91
2023/06/04 00:15:59;;;;;;;5.28;1.05;;;15.20;79.10;;;;;;5008348;28;20109;-90
2023/06/04 00:18:25;;;;;;;2.53;1.30;;;15.20;79.20;;;;;;5013096;28;20045;-93
2023/06/04 00:20:51;;;;;;;3.40;1.42;;;15.20;79.60;;;;;;5011736;28;20130;-92
2023/06/04 00:23:17;;;;;;;1.77;1.50;;;15.10;79.80;;;;;;4998803;28;20045;-86
2023/06/04 00:25:42;;;;;;;6.53;1.30;;;15.10;80.10;;;;;;5006537;28;20385;-85
2023/06/04 00:28:08;;;;;;;2.15;1.05;;;15.10;80.30;;;;;;5007011;28;20568;-85
2023/06/04 00:30:33;;;;;;;1.33;1.00;;;15.10;80.70;;;;;;5027629;28;20025;-86
2023/06/04 00:32:59;;;;;;;1.73;1.27;;;15.00;80.70;;;;;;5030732;28;20033;-87
2023/06/04 00:35:25;;;;;;;2.00;1.10;;;15.00;81.30;;;;;;5040594;28;20112;-86
2023/06/04 00:37:50;;;;;;;3.60;1.08;;;15.00;81.50;;;;;;5007726;28;20026;-85
2023/06/04 00:40:16;;;;;;;3.40;1.20;;;14.90;81.80;;;;;;5006042;28;20260;-86
2023/06/04 00:42:41;;;;;;;2.35;1.15;;;14.90;82.30;;;;;;5005053;28;20013;-86
2023/06/04 00:45:09;;;;;;;3.80;1.17;;;14.90;82.50;;;;;;5008239;28;20014;-86
2023/06/04 00:47:36;;;;;;;6.03;1.38;;;14.80;82.90;;;;;;5005510;28;20029;-86
2023/06/04 00:50:02;;;;;;;2.33;1.13;;;14.70;83.60;;;;;;5002257;28;20026;-84
2023/06/04 00:52:28;;;;;;;4.57;1.73;;;14.70;83.50;;;;;;4997644;28;20057;-87
2023/06/04 00:54:54;;;;;;;2.22;1.20;;;14.60;84.00;;;;;;5010815;28;20064;-86
2023/06/04 00:57:21;;;;;;;1.85;1.20;;;14.60;83.90;;;;;;5011599;28;20025;-86
2023/06/04 00:59:47;;;;;;;3.33;1.20;;;14.60;84.10;;;;;;4998102;28;20426;-86
2023/06/04 01:02:19;;;;;;;1.90;1.13;;;14.60;84.40;;;;;;5004125;28;20018;-84
2023/06/04 01:05:09;;;;;;;6.43;1.13;;;14.60;84.50;;;;;;5005599;28;20588;-85
2023/06/04 01:07:36;;;;;;;4.57;1.23;;;14.60;84.70;;;;;;4996024;28;20029;-86
2023/06/04 01:10:02;;;;;;;3.97;1.10;;;14.60;85.10;;;;;;5004472;28;20489;-85
2023/06/04 01:12:28;;;;;;;4.72;1.20;;;14.50;85.30;;;;;;5019643;28;20018;-85
2023/06/04 01:14:54;;;;;;;2.05;1.27;;;14.50;85.40;;;;;;5003902;28;20041;-85
2023/06/04 01:17:28;;;;;;;3.47;1.40;;;14.50;85.40;;;;;;5005177;28;20032;-85
2023/06/04 01:20:22;;;;;;;4.57;1.40;;;14.40;85.70;;;;;;5020926;28;20026;-86
2023/06/04 01:22:59;;;;;;;6.00;1.30;;;14.40;85.90;;;;;;5004077;28;20472;-85
2023/06/04 01:25:35;;;;;;;4.03;1.10;;;14.30;86.00;;;;;;5005510;28;20072;-84
2023/06/04 01:28:03;;;;;;;3.35;1.15;;;14.30;87.00;;;;;;5003581;28;20524;-85
2023/06/04 01:30:31;;;;;;;9.63;1.50;;;14.30;86.60;;;;;;5003234;28;20034;-85
2023/06/04 01:32:58;;;;;;;3.08;1.23;;;14.30;86.90;;;;;;5008340;28;20030;-86
2023/06/04 01:35:28;;;;;;;1.80;1.50;;;14.20;86.90;;;;;;5019748;28;20081;-85
2023/06/04 01:37:55;;;;;;;7.13;1.40;;;14.20;87.20;;;;;;5002967;28;20046;-85
2023/06/04 01:40:22;;;;;;;2.05;1.52;;;14.20;87.30;;;;;;5007883;28;20033;-85
2023/06/04 01:42:48;;;;;;;4.00;1.20;;;14.20;87.50;;;;;;5000708;28;20018;-86
2023/06/04 01:45:13;;;;;;;2.03;1.23;;;14.20;87.50;;;;;;5005406;28;20022;-85
2023/06/04 01:47:41;;;;;;;1.85;1.27;;;14.20;87.90;;;;;;5002909;28;20046;-85
2023/06/04 01:50:09;;;;;;;2.33;1.30;;;14.10;88.10;;;;;;5011032;28;20022;-86
2023/06/04 01:52:38;;;;;;;4.38;1.50;;;14.10;88.40;;;;;;5003377;28;20021;-86
2023/06/04 01:55:11;;;;;;;3.80;1.63;;;14.00;88.40;;;;;;5018896;28;20030;-85
2023/06/04 01:57:38;;;;;;;;;;;14.00;88.80;;;;;;5004160;28;20022;-86
2023/06/04 02:00:08;;;;;;;5.30;1.40;;;13.90;89.20;;;;;;5016587;28;19914;-87
2023/06/04 02:02:35;;;;;;;2.85;1.48;;;13.90;89.60;;;;;;5018875;28;20026;-92
2023/06/04 02:05:01;;;;;;;5.65;1.70;;;13.80;89.70;;;;;;5008318;28;20029;-91
2023/06/04 02:07:27;;;;;;;9.98;1.35;;;13.80;90.00;;;;;;5004212;28;20229;-93
2023/06/04 02:09:52;;;;;;;1.92;1.70;;;13.80;90.10;;;;;;5005924;28;20030;-90
2023/06/04 02:12:18;;;;;;;6.10;1.63;;;13.80;90.10;;;;;;5007457;28;20034;-91
2023/06/04 02:14:47;;;;;;;3.83;1.40;;;13.80;90.10;;;;;;5005893;28;20125;-88
2023/06/04 02:17:12;;;;;;;6.75;1.70;;;13.70;90.20;;;;;;5009018;28;20025;-90
2023/06/04 02:19:49;;;;;;;3.40;1.48;;;13.70;90.40;;;;;;5012760;28;20022;-87
2023/06/04 02:22:18;;;;;;;2.03;1.42;;;13.70;90.50;;;;;;5044482;28;20025;-91
2023/06/04 02:24:44;;;;;;;6.78;1.60;;;13.70;90.50;;;;;;5040900;28;20030;-88
2023/06/04 02:27:11;;;;;;;2.20;1.42;;;13.70;90.50;;;;;;5004667;28;20046;-93
2023/06/04 02:29:37;;;;;;;2.47;1.63;;;13.70;90.60;;;;;;5002850;28;20509;-91
2023/06/04 02:32:04;;;;;;;3.85;1.50;;;13.70;90.60;;;;;;5002053;28;20018;-89
2023/06/04 02:34:29;;;;;;;2.05;1.23;;;13.60;90.60;;;;;;5006163;28;20536;-93
2023/06/04 02:36:56;;;;;;;3.00;1.50;;;13.60;90.60;;;;;;5004777;28;20385;-89
2023/06/04 02:39:21;;;;;;;5.10;1.70;;;13.60;90.50;;;;;;5010343;28;20037;-88
2023/06/04 02:41:50;;;;;;;6.90;1.45;;;13.50;90.60;;;;;;5005365;28;20022;-90
2023/06/04 02:44:15;;;;;;;4.70;1.90;;;13.50;90.70;;;;;;5007038;28;20091;-93
2023/06/04 02:46:41;;;;;;;4.88;1.67;;;13.50;90.70;;;;;;5020052;28;20045;-91
2023/06/04 02:49:07;;;;;;;2.38;1.58;;;13.40;90.70;;;;;;5023495;28;20029;-89
2023/06/04 02:51:32;;;;;;;7.03;1.90;;;13.40;90.90;;;;;;5004508;28;20104;-93
2023/06/04 02:53:58;;;;;;;4.75;1.70;;;13.40;91.00;;;;;;5024624;28;20045;-88
2023/06/04 02:56:25;;;;;;;4.22;1.60;;;13.30;90.70;;;;;;5028506;28;20034;-87
2023/06/04 02:58:55;;;;;;;2.08;1.52;;;13.30;91.10;;;;;;5010388;28;20243;-92
2023/06/04 03:01:22;;;;;;;6.18;2.00;;;13.30;91.30;;;;;;5009227;28;20026;-90
2023/06/04 03:03:48;;;;;;;3.25;2.00;;;13.20;91.40;;;;;;5006613;28;20101;-88
2023/06/04 03:06:15;;;;;;;3.17;1.70;;;13.10;91.50;;;;;;5006175;28;20493;-90
2023/06/04 03:08:41;;;;;;;4.22;1.85;;;13.20;91.60;;;;;;5000424;28;20056;-90
2023/06/04 03:11:07;;;;;;;5.82;1.90;;;13.20;91.60;;;;;;5003243;28;20022;-91
2023/06/04 03:13:32;;;;;;;4.35;1.98;;;13.20;91.70;;;;;;5007474;28;20034;-90
2023/06/04 03:16:00;;;;;;;2.47;1.55;;;13.20;92.00;;;;;;5011981;28;20065;-94
2023/06/04 03:18:26;;;;;;;4.28;2.35;;;13.10;91.70;;;;;;5005388;28;20026;-90
2023/06/04 03:20:53;;;;;;;7.22;3.45;;;13.00;91.60;;;;;;5012339;28;20170;-91
2023/06/04 03:23:19;;;;;;;2.45;2.25;;;13.00;91.50;;;;;;5005777;28;20030;-93
2023/06/04 03:25:45;;;;;;;4.13;2.15;;;13.00;91.80;;;;;;5020753;28;20377;-92
2023/06/04 03:28:10;;;;;;;6.63;1.92;;;13.00;92.00;;;;;;5010611;28;20553;-94
2023/06/04 03:30:36;;;;;;;5.40;1.65;;;13.00;92.00;;;;;;5004703;28;20027;-89
2023/06/04 03:33:02;;;;;;;2.60;1.40;;;13.00;92.20;;;;;;5021613;28;20026;-92
2023/06/04 03:35:28;;;;;;;2.95;1.98;;;12.90;92.20;;;;;;5003682;28;20041;-93
2023/06/04 03:37:56;;;;;;;3.50;1.73;;;13.00;91.90;;;;;;5018452;28;20030;-90
2023/06/04 03:40:22;;;;;;;2.80;1.92;;;13.00;92.30;;;;;;5021214;28;20022;-95
2023/06/04 03:42:47;;;;;;;2.40;1.80;;;13.00;92.30;;;;;;5003876;28;20033;-94
2023/06/04 03:45:13;;;;;;;3.50;1.88;;;13.00;92.50;;;;;;5004781;28;20042;-92
2023/06/04 03:47:39;;;;;;;3.38;1.98;;;13.00;92.30;;;;;;5019001;28;20026;-90
2023/06/04 03:50:06;;;;;;;2.38;1.70;;;13.00;92.40;;;;;;5030343;28;20036;-86
2023/06/04 03:52:31;;;;;;;4.07;2.13;;;13.10;92.40;;;;;;5025621;28;20118;-90
2023/06/04 03:54:57;;;;;;;5.43;2.60;;;13.10;92.00;;;;;;5008807;28;20545;-92
2023/06/04 03:57:23;;;;;;;5.47;2.20;;;13.10;92.30;;;;;;5019650;28;20101;-92
2023/06/04 03:59:48;;;;;;;4.70;2.03;;;13.10;92.10;;;;;;5007297;28;20053;-89
2023/06/04 04:02:15;;;;;;;4.95;1.90;;;13.10;92.30;;;;;;5034439;28;20689;-88
2023/06/04 04:04:40;;;;;;;1.60;1.50;;;13.10;92.20;;;;;;5034515;28;20093;-88
2023/06/04 04:07:06;;;;;;;6.15;1.75;;;13.10;92.20;;;;;;5060154;22;20157;-92
2023/06/04 04:09:34;;;;;;;4.38;1.80;;;13.20;92.20;;;;;;5030262;28;20030;-90
2023/06/04 04:12:00;;;;;;;8.85;2.20;;;13.20;92.10;;;;;;5019653;28;20021;-91
2023/06/04 04:14:27;;;;;;;2.75;1.85;;;13.20;92.20;;;;;;5019792;28;20084;-91
2023/06/04 04:16:53;;;;;;;4.18;1.75;;;13.20;92.50;;;;;;5028477;28;20018;-89
2023/06/04 04:19:18;;;;;;;2.63;1.67;;;13.20;92.20;;;;;;5026338;28;20122;-90
2023/06/04 04:21:48;;;;;;;2.90;1.75;;;13.20;92.30;;;;;;5041524;28;20045;-86
2023/06/04 04:24:22;;;;;;;4.63;2.03;;;13.20;92.30;;;;;;5038020;28;20121;-88
2023/06/04 04:26:48;;;;;;;2.70;2.17;;;13.30;92.30;;;;;;5024773;28;20022;-90
2023/06/04 04:29:14;;;;;;;3.42;1.67;;;13.30;92.30;;;;;;5016949;28;20024;-91
2023/06/04 04:31:40;;;;;;;2.63;2.20;;;13.30;92.30;;;;;;5018386;28;20033;-91
2023/06/04 04:34:08;;;;;;;4.95;2.00;;;13.40;92.10;;;;;;5014384;28;20041;-92
2023/06/04 04:36:36;;;;;;;5.00;1.67;;;13.50;92.10;;;;;;5018961;28;20439;-88
2023/06/04 04:39:02;;;;;;;5.15;2.13;;;13.50;92.00;;;;;;5018568;28;20500;-88
2023/06/04 04:41:27;;;;;;;5.15;1.83;;;13.60;91.90;;;;;;5019384;28;20018;-91
2023/06/04 04:43:53;;;;;;;2.53;1.70;;;13.60;91.70;;;;;;5015046;28;20426;-88
2023/06/04 04:46:19;;;;;;;3.33;2.00;;;13.70;91.70;;;;;;5013000;28;20038;-87
2023/06/04 04:48:45;;;;;;;3.63;2.17;;;13.70;91.60;;;;;;5023398;28;20075;-92
2023/06/04 04:51:10;;;;;;;9.00;1.60;;;13.80;91.50;;;;;;5016248;28;20097;-91
2023/06/04 04:53:36;;;;;;;4.20;1.95;;;13.80;91.40;;;;;;5017089;28;20026;-92
2023/06/04 04:56:02;;;;;;;2.85;1.85;;;13.90;91.40;;;;;;5020166;28;20022;-93
2023/06/04 04:58:29;;;;;;;5.72;2.35;;;13.90;91.30;;;;;;5019489;28;20097;-87
2023/06/04 05:00:55;;;;;;;4.60;2.38;;;14.00;91.30;;;;;;5020362;28;20053;-91
2023/06/04 05:03:20;;;;;;;6.68;1.80;;;14.10;91.20;;;;;;5023251;28;20068;-92
2023/06/04 05:05:46;;;;;;;1.98;1.70;;;14.10;91.00;;;;;;5015529;28;20035;-92
2023/06/04 05:08:12;;;;;;;3.78;2.10;;;14.20;91.00;;;;;;5014644;28;20401;-94
2023/06/04 05:10:37;;;;;;;7.82;1.80;;;14.20;90.90;;;;;;5019769;28;20025;-88
2023/06/04 05:13:04;;;;;;;3.67;2.13;;;14.30;90.80;;;;;;5023135;28;20442;-92
2023/06/04 05:15:30;;;;;;;5.05;1.88;;;14.30;90.70;;;;;;5015598;28;20127;-91
2023/06/04 05:17:56;;;;;;;3.65;1.75;;;14.40;90.70;;;;;;5011893;28;20113;-90
2023/06/04 05:20:22;;;;;;;3.13;2.20;;;14.50;90.60;;;;;;5018506;28;20095;-92
2023/06/04 05:22:48;;;;;;;4.75;2.40;;;14.50;90.50;;;;;;5011590;28;20022;-87
2023/06/04 05:25:14;;;;;;;5.47;2.08;;;14.60;90.40;;;;;;5016337;28;20039;-93
2023/06/04 05:27:41;;;;;;;3.28;2.10;;;14.70;90.30;;;;;;5013232;28;20050;-90
2023/06/04 05:30:08;;;;;;;2.88;2.03;;;14.70;90.20;;;;;;5018348;28;20021;-89
2023/06/04 05:32:36;;;;;;;2.05;1.85;;;14.70;90.20;;;;;;5014798;28;20080;-88
2023/06/04 05:35:04;;;;;;;2.72;2.25;;;14.80;90.10;;;;;;5021670;28;20041;-92
2023/06/04 05:37:30;;;;;;;3.78;2.22;;;14.90;90.10;;;;;;5015804;28;20505;-92
2023/06/04 05:39:58;;;;;;;4.97;2.03;;;14.90;90.00;;;;;;5017357;28;20025;-93
2023/06/04 05:42:24;;;;;;;2.40;1.60;;;15.00;90.00;;;;;;5016394;28;20014;-91
2023/06/04 05:44:50;;;;;;;4.53;1.98;;;15.00;89.40;;;;;;5015132;28;20030;-88
2023/06/04 05:47:16;;;;;;;5.22;2.28;;;15.10;89.30;;;;;;5014808;28;20108;-92
2023/06/04 05:49:42;;;;;;;5.28;2.38;;;15.10;89.40;;;;;;5017232;28;20128;-94
2023/06/04 05:52:08;;;;;;;4.50;2.15;;;15.20;89.30;;;;;;5016235;28;20295;-88
2023/06/04 05:54:33;;;;;;;4.95;2.13;;;15.30;88.80;;;;;;5020240;28;20030;-88
2023/06/04 05:56:59;;;;;;;4.97;2.08;;;15.40;88.70;;;;;;5018082;28;20062;-94
2023/06/04 05:59:24;;;;;;;3.03;1.83;;;15.40;88.40;;;;;;5019636;28;20030;-88
2023/06/04 06:01:50;;;;;;;3.58;2.10;;;15.50;88.60;;;;;;5020339;28;20049;-90
2023/06/04 06:04:16;;;;;;;4.38;2.08;;;15.60;88.20;;;;;;5017665;28;20022;-85
2023/06/04 06:06:47;;;;;;;6.68;1.98;;;15.70;88.20;;;;;;5030453;28;20045;-90
2023/06/04 06:09:12;;;;;;;2.83;2.20;;;15.80;87.60;;;;;;5040937;28;20104;-87
2023/06/04 06:11:40;;;;;;;9.60;1.98;;;15.90;86.80;;;;;;5026490;28;20038;-89
2023/06/04 06:14:06;;;;;;;2.72;2.20;;;15.90;86.70;;;;;;5020191;28;20041;-90
2023/06/04 06:16:32;;;;;;;3.55;2.15;;;16.00;86.50;;;;;;5026054;28;20283;-90
2023/06/04 06:18:58;;;;;;;4.95;1.95;;;16.10;86.40;;;;;;5036472;28;20568;-95
2023/06/04 06:21:24;;;;;;;4.43;1.98;;;16.20;86.10;;;;;;5037139;28;20017;-88
2023/06/04 06:23:50;;;;;;;6.55;2.10;;;16.30;85.60;;;;;;5021675;28;20024;-87
2023/06/04 06:26:15;;;;;;;3.90;1.83;;;16.40;85.10;;;;;;5028435;28;20021;-89
2023/06/04 06:28:42;;;;;;;6.85;2.42;;;16.40;84.60;;;;;;5021988;28;20052;-90
2023/06/04 06:31:08;;;;;;;4.53;2.53;;;16.40;83.90;;;;;;5030755;28;20625;-90
2023/06/04 06:33:33;;;;;;;1.85;1.73;;;16.50;83.90;;;;;;5014061;28;20026;-87
2023/06/04 06:36:02;;;;;;;3.22;1.80;;;16.70;83.90;;;;;;5018929;28;20587;-90
2023/06/04 06:38:27;;;;;;;3.72;2.05;;;16.80;83.70;;;;;;5018786;28;20116;-92
2023/06/04 06:40:53;;;;;;;5.13;1.63;;;16.80;83.10;;;;;;5018295;28;20065;-90
2023/06/04 06:43:19;;;;;;;3.65;2.05;;;16.90;82.60;;;;;;5021518;28;20029;-89
2023/06/04 06:45:45;;;;;;;5.20;2.22;;;16.90;82.70;;;;;;5017030;28;20105;-86
2023/06/04 06:48:10;;;;;;;4.07;1.80;;;17.00;82.90;;;;;;5016599;28;20108;-94
2023/06/04 06:50:36;;;;;;;3.88;1.77;;;17.10;82.60;;;;;;5016158;28;20494;-88
2023/06/04 06:53:03;;;;;;;1.98;1.77;;;17.30;81.10;;;;;;5014624;28;20053;-92
2023/06/04 06:55:28;;;;;;;2.00;1.80;;;17.30;81.00;;;;;;5020623;28;20045;-90
2023/06/04 06:57:54;;;;;;;4.35;2.33;;;17.40;81.20;;;;;;5020661;28;20110;-91
2023/06/04 07:00:20;;;;;;;6.20;2.00;;;17.50;81.00;;;;;;5019848;28;20499;-90
2023/06/04 07:02:45;;;;;;;1.88;1.67;;;17.70;80.80;;;;;;5035387;28;20022;-88
2023/06/04 07:05:13;;;;;;;4.78;1.80;;;17.80;79.90;;;;;;5033178;28;20030;-87
2023/06/04 07:07:41;;;;;;;6.07;2.00;;;17.90;78.10;;;;;;5027353;28;20470;-90
2023/06/04 07:10:07;;;;;;;4.57;1.70;;;17.90;77.80;;;;;;5015919;28;20224;-89
2023/06/04 07:12:36;;;;;;;2.22;1.45;;;18.00;78.10;;;;;;5018667;28;20037;-89
2023/06/04 07:15:02;;;;;;;4.03;1.63;;;18.10;78.10;;;;;;5015070;28;20065;-91
2023/06/04 07:17:27;;;;;;;4.57;1.50;;;18.30;77.60;;;;;;5023762;28;20040;-91
2023/06/04 07:19:53;;;;;;;3.67;1.90;;;18.30;75.10;;;;;;5021691;28;20444;-93
2023/06/04 07:22:19;;;;;;;3.45;1.58;;;18.50;75.20;;;;;;5018831;28;20669;-89
2023/06/04 07:24:44;;;;;;;2.67;1.75;;;18.60;74.30;;;;;;5021614;28;20381;-89
2023/06/04 07:27:13;;;;;;;3.20;1.90;;;18.70;73.50;;;;;;5023310;28;20458;-91
2023/06/04 07:29:39;;;;;;;4.78;1.48;;;18.80;72.60;;;;;;5022729;28;20032;-87
2023/06/04 07:32:05;;;;;;;2.10;1.60;;;18.90;72.00;;;;;;5020932;28;20038;-88
2023/06/04 07:34:31;;;;;;;3.35;2.00;;;19.00;73.00;;;;;;5011834;28;20366;-91
2023/06/04 07:36:57;;;;;;;3.58;1.75;;;19.10;71.90;;;;;;5012354;28;20044;-91
2023/06/04 07:39:23;;;;;;;4.80;1.95;;;19.30;71.30;;;;;;5015892;28;20422;-92
2023/06/04 07:41:48;;;;;;;3.28;1.58;;;19.50;70.50;;;;;;5021678;28;20125;-93
2023/06/04 07:44:14;;;;;;;8.13;1.88;;;19.70;69.80;;;;;;5011590;28;20029;-87
2023/06/04 07:46:40;;;;;;;7.38;1.50;;;19.80;69.00;;;;;;5016320;28;20051;-92
2023/06/04 07:49:09;;;;;;;2.90;1.75;;;20.10;69.30;;;;;;5021869;28;20017;-90
2023/06/04 07:51:34;;;;;;;2.50;1.63;;;20.20;68.80;;;;;;5018726;28;20095;-90
2023/06/04 07:54:01;;;;;;;1.73;1.52;;;20.30;68.30;;;;;;5023776;28;20049;-91
2023/06/04 07:56:27;;;;;;;3.55;1.40;;;20.50;67.10;;;;;;5024186;28;20029;-92
2023/06/04 07:58:53;;;;;;;5.35;1.63;;;20.80;66.90;;;;;;5022183;28;20029;-90
2023/06/04 08:01:21;;;;;;;7.05;1.67;;;21.10;66.50;;;;;;5025652;28;20544;-90
2023/06/04 08:03:47;;;;;;;3.30;1.38;;;21.40;65.30;;;;;;5019529;28;20018;-91
2023/06/04 08:06:14;;;;;;;3.15;2.00;;;21.60;64.20;;;;;;5027647;28;20658;-86
2023/06/04 08:08:45;;;;;;;1.88;1.48;;;21.80;63.60;;;;;;5037303;28;21230;-86
2023/06/04 08:11:25;;;;;;;5.15;1.67;;;21.80;63.20;;;;;;5038463;28;20053;-90
2023/06/04 08:13:51;;;;;;;2.45;1.45;;;22.00;61.60;;;;;;5041511;28;20270;-92
2023/06/04 08:16:16;;;;;;;2.03;1.48;;;22.20;60.10;;;;;;5027255;28;20026;-89
2023/06/04 08:18:42;;;;;;;5.82;1.52;;;22.40;59.80;;;;;;5024833;28;20439;-94
2023/06/04 08:21:11;;;;;;;4.13;1.70;;;22.50;59.50;;;;;;5021182;28;20185;-83
2023/06/04 08:23:37;;;;;;;1.33;1.23;;;23.00;59.10;;;;;;5024128;28;20038;-94
2023/06/04 08:26:05;;;;;;;3.88;1.73;;;23.40;57.50;;;;;;5018835;28;20029;-93
2023/06/04 08:28:33;;;;;;;1.60;1.30;;;23.60;56.80;;;;;;5019719;28;20572;-87
2023/06/04 08:30:59;;;;;;;3.10;1.40;;;23.80;56.90;;;;;;5024219;28;20018;-90
2023/06/04 08:33:26;;;;;;;1.85;1.23;;;24.10;54.50;;;;;;5019460;28;20021;-88
2023/06/04 08:35:52;;;;;;;3.13;2.08;;;24.30;54.20;;;;;;5022171;28;20584;-88
2023/06/04 08:38:18;;;;;;;3.35;1.38;;;24.60;53.90;;;;;;5016484;28;20113;-89
2023/06/04 08:40:43;;;;;;;2.17;1.13;;;24.80;53.10;;;;;;5024397;28;20040;-87
2023/06/04 08:43:12;;;;;;;143.90;67.47;;;25.00;51.30;;;;;;5016930;28;20049;-83
2023/06/04 08:45:40;;;;;;;1.48;1.38;;;25.20;50.30;;;;;;5013251;28;20612;-84
2023/06/04 08:48:13;;;;;;;2.65;1.70;;;25.40;48.00;;;;;;5016410;28;20017;-87
2023/06/04 08:50:42;;;;;;;4.80;1.42;;;25.40;47.20;;;;;;5018559;28;20040;-86
2023/06/04 08:53:10;;;;;;;7.10;1.20;;;25.40;47.10;;;;;;5020600;28;20446;-89
2023/06/04 08:55:37;;;;;;;1.40;1.30;;;25.70;47.10;;;;;;5019907;28;20045;-89
2023/06/04 08:58:08;;;;;;;4.38;1.60;;;25.90;46.10;;;;;;5015475;28;20021;-86
2023/06/04 09:00:33;;;;;;;2.22;1.33;;;26.00;46.00;;;;;;5008631;28;20407;-86
2023/06/04 09:03:03;;;;;;;3.47;1.40;;;26.10;44.80;;;;;;4984373;28;20030;-83
2023/06/04 09:05:29;;;;;;;1.00;1.00;;;26.20;45.10;;;;;;4989912;28;20203;-83
2023/06/04 09:08:00;;;;;;;597.63;201.63;;;26.30;44.50;;;;;;4981279;28;20030;-82
2023/06/04 09:10:28;;;;;;;1.33;1.23;;;26.40;45.40;;;;;;4983393;28;20029;-82
2023/06/04 09:12:56;;;;;;;1.48;0.90;;;26.50;44.70;;;;;;4985555;28;20292;-85
2023/06/04 09:15:22;;;;;;;2.15;1.13;;;26.50;46.50;;;;;;4981640;28;20525;-81
2023/06/04 09:17:50;;;;;;;7.72;1.40;;;26.60;45.50;;;;;;4981959;28;20788;-82
2023/06/04 09:20:23;;;;;;;1.10;1.10;;;26.60;44.80;;;;;;4979854;28;20029;-81
2023/06/04 09:22:49;;;;;;;1.77;1.15;;;26.60;44.20;;;;;;4980568;28;20045;-83
2023/06/04 09:25:25;;;;;;;2.92;1.23;;;26.60;44.00;;;;;;4979509;28;20293;-86
2023/06/04 09:27:51;;;;;;;1.92;1.02;;;26.50;43.20;;;;;;4978489;28;20029;-84
2023/06/04 09:30:17;;;;;;;1.27;1.17;;;26.50;43.00;;;;;;4984162;28;20037;-83
2023/06/04 09:32:43;;;;;;;3.33;1.10;;;26.60;43.70;;;;;;4993880;28;20409;-84
2023/06/04 09:35:15;;;;;;;2.70;1.52;;;26.70;43.30;;;;;;4988427;28;20041;-83
2023/06/04 09:37:42;;;;;;;1.55;1.20;;;26.90;43.00;;;;;;4991500;28;20037;-85
2023/06/04 09:40:09;;;;;;;2.58;1.25;;;27.10;43.00;;;;;;4980265;28;20535;-86
2023/06/04 09:42:46;;;;;;;80.30;42.80;;;27.20;43.80;;;;;;4982872;28;21150;-87
2023/06/04 09:45:12;;;;;;;8.57;4.40;;;27.40;42.70;;;;;;4979081;28;20030;-81
2023/06/04 09:47:44;;;;;;;4.10;1.60;;;27.40;41.50;;;;;;4986367;28;20037;-85
2023/06/04 09:50:24;;;;;;;1.27;1.15;;;27.40;41.70;;;;;;4979800;28;20567;-83
2023/06/04 09:52:51;;;;;;;1.55;1.45;;;27.70;41.70;;;;;;4977875;28;20244;-84
2023/06/04 09:55:21;;;;;;;1.88;1.17;;;27.60;41.70;;;;;;4976859;28;20064;-84
2023/06/04 09:57:48;;;;;;;1.58;1.42;;;27.90;42.00;;;;;;4978456;28;20410;-83
2023/06/04 10:00:17;;;;;;;2.05;1.20;;;28.00;41.30;;;;;;4982607;28;20038;-82
2023/06/04 10:02:44;;;;;;;6.50;1.60;;;28.00;41.60;;;;;;4976898;28;20115;-83
2023/06/04 10:05:14;;;;;;;1.15;1.10;;;28.10;41.60;;;;;;4981814;28;20381;-82
2023/06/04 10:07:42;;;;;;;2.35;1.35;;;28.30;40.70;;;;;;4996447;28;20088;-82
2023/06/04 10:10:10;;;;;;;1.48;1.30;;;28.40;39.50;;;;;;4984587;28;20048;-84
2023/06/04 10:12:37;;;;;;;2.40;1.63;;;28.70;40.50;;;;;;5003210;28;20183;-84
2023/06/04 10:15:09;;;;;;;1.67;1.10;;;28.90;40.00;;;;;;4988957;28;20046;-84
2023/06/04 10:17:36;;;;;;;1.38;1.27;;;29.40;39.40;;;;;;4978870;28;20438;-80
2023/06/04 10:20:05;;;;;;;4.50;1.38;;;29.80;38.60;;;;;;4988426;28;20151;-81
2023/06/04 10:22:31;;;;;;;1.23;1.00;;;29.80;38.10;;;;;;4980745;28;20119;-79
2023/06/04 10:24:58;;;;;;;50.20;23.50;;;30.10;38.20;;;;;;4981910;28;20898;-80
2023/06/04 10:27:24;;;;;;;3.17;1.05;;;30.30;38.10;;;;;;4981277;28;20088;-79
2023/06/04 10:29:52;;;;;;;3.40;1.33;;;30.40;36.60;;;;;;4990760;28;20473;-79
2023/06/04 10:32:18;;;;;;;2.40;1.40;;;30.30;36.70;;;;;;4984542;28;20331;-83
2023/06/04 10:34:46;;;;;;;5.63;1.20;;;30.00;36.90;;;;;;4985499;28;20037;-79
2023/06/04 10:37:22;;;;;;;1.35;1.08;;;30.10;36.90;;;;;;4982245;28;20123;-81
2023/06/04 10:39:52;;;;;;;4.47;1.42;;;30.30;35.90;;;;;;4983093;28;20598;-79
2023/06/04 10:42:21;;;;;;;2.55;1.33;;;30.10;35.90;;;;;;4981612;28;20041;-85
2023/06/04 10:44:49;;;;;;;2.05;1.27;;;29.90;36.50;;;;;;4986391;28;20483;-79
2023/06/04 10:47:27;;;;;;;2.53;1.33;;;30.00;36.90;;;;;;4981265;28;20071;-84
2023/06/04 10:49:54;;;;;;;3.25;1.20;;;30.20;36.80;;;;;;4981287;28;20033;-86
2023/06/04 10:52:22;;;;;;;6.47;1.42;;;30.10;36.70;;;;;;5105096;22;20141;-86
2023/06/04 10:54:48;;;;;;;1.63;1.20;;;30.30;36.10;;;;;;4985113;28;20041;-84
2023/06/04 10:57:18;;;;;;;1.98;1.23;;;30.50;36.30;;;;;;4990850;28;20072;-83
2023/06/04 10:59:54;;;;;;;2.75;1.15;;;30.90;36.50;;;;;;4984417;28;20034;-86
2023/06/04 11:02:20;;;;;;;5.70;1.30;;;31.00;36.90;;;;;;4987251;28;20120;-88
2023/06/04 11:04:47;;;;;;;2.13;1.00;;;30.70;36.90;;;;;;4983386;28;20133;-83
2023/06/04 11:07:15;;;;;;;2.45;1.20;;;30.50;36.20;;;;;;4977970;28;20536;-80
2023/06/04 11:10:00;;;;;;;3.92;1.40;;;30.30;36.30;;;;;;4977442;28;20034;-77
2023/06/04 11:12:26;;;;;;;2.13;1.20;;;30.10;35.30;;;;;;4981043;28;20794;-79
2023/06/04 11:14:58;;;;;;;96.30;42.53;;;30.10;36.60;;;;;;4978881;28;20030;-77
2023/06/04 11:17:24;;;;;;;2.95;1.40;;;30.00;35.70;;;;;;4979952;28;20232;-80
2023/06/04 11:19:49;;;;;;;5.68;1.20;;;29.90;38.10;;;;;;4978352;28;20084;-80
2023/06/04 11:22:15;;;;;;;4.07;1.30;;;29.90;37.30;;;;;;4976310;28;20040;-79
2023/06/04 11:24:41;;;;;;;2.47;1.30;;;29.60;36.80;;;;;;4984225;28;20057;-80
2023/06/04 11:27:09;;;;;;;1.30;1.20;;;29.90;37.70;;;;;;4979364;28;20030;-83
2023/06/04 11:29:36;;;;;;;1.50;1.40;;;30.20;36.90;;;;;;4983410;28;20025;-83
2023/06/04 11:32:02;;;;;;;1.92;1.20;;;30.20;37.00;;;;;;4986280;28;20021;-82
2023/06/04 11:34:31;;;;;;;3.78;1.70;;;30.10;37.60;;;;;;5009226;28;20528;-84
2023/06/04 11:37:10;;;;;;;2.00;1.38;;;30.10;37.40;;;;;;5014418;28;20025;-84
2023/06/04 11:39:38;;;;;;;152.00;71.70;;;29.90;37.40;;;;;;5014142;28;20557;-78
2023/06/04 11:42:07;;;;;;;2.58;1.10;;;30.00;38.00;;;;;;5007294;28;20030;-78
2023/06/04 11:44:33;;;;;;;1.63;1.50;;;30.00;37.90;;;;;;5012755;28;20108;-82
2023/06/04 11:46:59;;;;;;;2.25;1.10;;;30.10;37.70;;;;;;5009010;28;20092;-78
2023/06/04 11:49:26;;;;;;;4.65;1.10;;;30.40;37.30;;;;;;5009519;28;20477;-74
2023/06/04 11:51:53;;;;;;;1.10;1.00;;;30.30;37.80;;;;;;5001764;28;20132;-76
2023/06/04 11:54:21;;;;;;;3.22;1.15;;;30.10;37.00;;;;;;5003022;28;20050;-75
2023/06/04 11:56:51;;;;;;;2.17;1.38;;;30.30;37.80;;;;;;5008372;28;20310;-74
2023/06/04 11:59:18;;;;;;;3.15;1.02;;;30.50;37.70;;;;;;5010311;28;20040;-76
2023/06/04 12:01:45;;;;;;;4.50;1.30;;;30.50;37.90;;;;;;5004479;28;20029;-77
2023/06/04 12:04:18;;;;;;;2.58;1.40;;;30.40;37.70;;;;;;5001441;28;20450;-77
2023/06/04 12:06:53;;;;;;;3.88;1.33;;;30.40;37.60;;;;;;4996804;28;20192;-77
2023/06/04 12:09:23;;;;;;;33.85;17.30;;;30.10;37.50;;;;;;5009882;28;20038;-76
2023/06/04 12:11:49;;;;;;;6.53;1.58;;;30.10;38.20;;;;;;5010678;28;20025;-76
2023/06/04 12:14:18;;;;;;;1.77;1.42;;;30.20;38.00;;;;;;5011169;28;20094;-76
2023/06/04 12:16:57;;;;;;;1.45;1.33;;;30.00;37.80;;;;;;5008007;28;20028;-76
2023/06/04 12:19:23;;;;;;;3.55;1.30;;;30.00;37.90;;;;;;5014968;28;20029;-76
2023/06/04 12:22:05;;;;;;;1.58;1.40;;;29.90;38.10;;;;;;5010698;28;20052;-76
2023/06/04 12:24:45;;;;;;;2.72;1.35;;;30.10;37.90;;;;;;5012237;28;20680;-78
2023/06/04 12:27:11;;;;;;;5.40;1.85;;;30.10;37.80;;;;;;5007868;28;20026;-78
2023/06/04 12:29:37;;;;;;;4.35;1.33;;;30.30;38.40;;;;;;5009525;28;20699;-77
2023/06/04 12:32:08;;;;;;;5.03;1.70;;;30.30;37.40;;;;;;5008585;28;20036;-78
2023/06/04 12:34:35;;;;;;;3.40;1.30;;;30.60;37.20;;;;;;5019382;28;20546;-77
2023/06/04 12:37:02;;;;;;;2.83;1.60;;;30.40;37.00;;;;;;5013889;28;20113;-78
2023/06/04 12:39:29;;;;;;;2.05;1.48;;;30.50;37.80;;;;;;5006433;28;20029;-77
2023/06/04 12:41:55;;;;;;;2.47;2.08;;;30.50;37.30;;;;;;5011613;28;20026;-78
2023/06/04 12:44:21;;;;;;;1.30;1.20;;;30.40;37.30;;;;;;5010473;28;20568;-77
2023/06/04 12:46:46;;;;;;;1.75;1.30;;;30.40;37.80;;;;;;5012840;28;20485;-77